Terminal Aerodrome Forecast
Issued by NWS

Home | Current Version | Previous Version | Text Only | Print | Product List | Glossary On
Versions: 1 2 3 4 5 6 7 8 9 10 11 12
000
FTUS42 KTBW 142326
TAFPIE
TAF
KPIE 142326Z 1500/1524 19012KT P6SM SCT150
     FM150100 19006KT P6SM BKN100
     FM151400 19007KT P6SM BKN050
     FM151800 26007KT P6SM SCT050=

USA.gov is the U.S. government's official web portal to all federal, state and local government web resources and services.